createdAt,value
2023-05-22T00:08:43.115Z,15.86
2023-05-22T00:23:48.988Z,15.77
2023-05-22T00:38:54.466Z,15.95
2023-05-22T00:54:00.361Z,15.87
2023-05-22T01:09:06.887Z,15.59
2023-05-22T01:24:38.074Z,15.30
2023-05-22T01:39:45.092Z,14.89
2023-05-22T01:54:58.644Z,15.27
2023-05-22T02:10:05.302Z,14.81
2023-05-22T02:25:15.058Z,14.20
2023-05-22T02:40:20.786Z,14.11
2023-05-22T02:55:26.582Z,13.90
2023-05-22T03:10:32.545Z,13.58
2023-05-22T03:25:38.151Z,13.44
2023-05-22T03:40:43.761Z,13.21
2023-05-22T03:55:49.379Z,13.62
2023-05-22T04:10:54.926Z,13.81
2023-05-22T04:26:02.638Z,13.84
2023-05-22T04:41:09.126Z,14.29
2023-05-22T04:56:18.620Z,15.07
2023-05-22T05:11:30.420Z,16.01
2023-05-22T05:26:36.035Z,17.06
2023-05-22T05:41:41.674Z,17.76
2023-05-22T05:56:47.384Z,18.43
2023-05-22T06:11:52.937Z,19.74
2023-05-22T06:26:58.683Z,20.94
2023-05-22T06:42:04.471Z,22.31
2023-05-22T06:57:10.022Z,23.28
2023-05-22T07:12:15.701Z,24.09
2023-05-22T07:27:21.516Z,24.99
2023-05-22T07:42:28.421Z,25.74
2023-05-22T07:57:36.664Z,26.25
2023-05-22T08:12:42.369Z,26.95
2023-05-22T08:27:48.040Z,27.67
2023-05-22T08:42:55.196Z,28.10
2023-05-22T08:58:01.972Z,28.05
2023-05-22T09:13:09.508Z,29.03
2023-05-22T09:28:15.256Z,29.08
2023-05-22T09:43:21.433Z,29.54
2023-05-22T09:58:32.416Z,29.46
2023-05-22T10:13:39.558Z,29.86
2023-05-22T10:28:52.686Z,30.10
2023-05-22T10:43:59.292Z,29.95
2023-05-22T10:59:08.459Z,29.28
2023-05-22T11:14:18.185Z,29.21
2023-05-22T11:29:25.560Z,30.72
2023-05-22T11:44:31.260Z,29.78
2023-05-22T11:59:37.344Z,30.31
2023-05-22T12:14:46.798Z,30.79
2023-05-22T12:29:53.218Z,30.60
2023-05-22T12:45:00.920Z,31.25
2023-05-22T13:00:08.217Z,31.40
2023-05-22T13:15:15.647Z,29.60
2023-05-22T13:30:22.246Z,30.11
2023-05-22T13:45:28.053Z,30.55
2023-05-22T14:00:33.854Z,29.56
2023-05-22T14:15:39.805Z,28.95
2023-05-22T14:30:46.326Z,28.30
2023-05-22T14:45:52.114Z,29.48
2023-05-22T15:00:57.648Z,28.14
2023-05-22T15:16:03.529Z,28.12
2023-05-22T15:31:09.161Z,27.71
2023-05-22T15:46:17.042Z,28.09
2023-05-22T16:01:22.815Z,27.07
2023-05-22T16:16:28.945Z,27.21
2023-05-22T16:31:35.957Z,27.41
2023-05-22T16:46:41.921Z,26.57
2023-05-22T17:01:48.315Z,26.04
2023-05-22T17:16:54.858Z,25.13
2023-05-22T17:32:01.298Z,23.69
2023-05-22T17:47:08.606Z,22.24
2023-05-22T18:02:14.410Z,21.10
2023-05-22T18:17:20.340Z,21.11
2023-05-22T18:32:26.308Z,20.64
2023-05-22T18:47:32.497Z,20.46
2023-05-22T19:02:38.272Z,20.27
2023-05-22T19:17:44.270Z,19.95
2023-05-22T19:32:51.120Z,19.85
2023-05-22T19:47:58.039Z,19.46
2023-05-22T20:03:04.447Z,19.23
2023-05-22T20:18:11.464Z,18.77
2023-05-22T20:33:18.032Z,18.43
2023-05-22T20:48:24.082Z,18.17
2023-05-22T21:03:30.023Z,17.85
2023-05-22T21:18:36.389Z,17.64
2023-05-22T21:33:42.542Z,17.36
2023-05-22T21:48:48.805Z,17.18
2023-05-22T22:03:54.588Z,16.90
2023-05-22T22:19:01.482Z,16.71
2023-05-22T22:34:07.443Z,16.36
2023-05-22T22:49:13.240Z,16.30
2023-05-22T23:04:19.178Z,16.12
2023-05-22T23:19:24.988Z,15.97
2023-05-22T23:34:30.602Z,15.84
2023-05-22T23:49:36.407Z,15.62
